createdAt,value
2023-01-22T00:01:25.772Z,26.00
2023-01-22T00:03:54.257Z,27.30
2023-01-22T00:06:46.971Z,28.10
2023-01-22T00:09:15.891Z,29.30
2023-01-22T00:11:42.905Z,26.10
2023-01-22T00:14:10.005Z,28.90
2023-01-22T00:16:37.112Z,30.40
2023-01-22T00:19:04.190Z,28.50
2023-01-22T00:21:31.222Z,30.20
2023-01-22T00:23:58.278Z,29.90
2023-01-22T00:26:25.425Z,34.00
2023-01-22T00:28:52.488Z,36.70
2023-01-22T00:31:21.966Z,31.50
2023-01-22T00:33:49.209Z,32.30
2023-01-22T00:36:23.081Z,32.40
2023-01-22T00:38:50.533Z,38.30
2023-01-22T00:41:19.111Z,33.60
2023-01-22T00:43:46.224Z,34.60
2023-01-22T00:46:15.138Z,35.40
2023-01-22T00:48:42.550Z,34.00
2023-01-22T00:51:15.084Z,34.70
2023-01-22T00:53:44.454Z,33.10
2023-01-22T00:56:12.517Z,31.10
2023-01-22T00:58:40.027Z,34.30
2023-01-22T01:01:07.677Z,32.20
2023-01-22T01:03:35.612Z,36.10
2023-01-22T01:06:16.959Z,35.70
2023-01-22T01:08:46.048Z,41.80
2023-01-22T01:14:17.723Z,40.20
2023-01-22T01:16:44.795Z,36.50
2023-01-22T01:19:11.989Z,35.80
2023-01-22T01:21:39.156Z,33.90
2023-01-22T01:24:06.296Z,33.30
2023-01-22T01:26:35.178Z,32.80
2023-01-22T01:29:05.002Z,33.40
2023-01-22T01:31:32.205Z,39.50
2023-01-22T01:33:59.406Z,36.70
2023-01-22T01:36:47.093Z,37.90
2023-01-22T01:39:15.212Z,36.60
2023-01-22T01:41:42.611Z,35.30
2023-01-22T01:44:17.606Z,38.60
2023-01-22T01:47:07.324Z,39.90
2023-01-22T01:49:38.226Z,39.60
2023-01-22T01:52:08.655Z,36.30
2023-01-22T01:54:35.727Z,37.00
2023-01-22T01:57:11.610Z,35.90
2023-01-22T01:59:39.050Z,35.30
2023-01-22T02:02:06.573Z,36.40
2023-01-22T02:04:33.886Z,37.10
2023-01-22T02:07:01.852Z,38.60
2023-01-22T02:09:29.655Z,38.80
2023-01-22T02:11:58.927Z,36.90
2023-01-22T02:14:34.074Z,36.40
2023-01-22T02:17:08.485Z,34.70
2023-01-22T02:19:35.656Z,38.90
2023-01-22T02:22:02.729Z,43.20
2023-01-22T02:24:30.407Z,40.40
2023-01-22T02:26:57.743Z,39.60
2023-01-22T02:29:27.426Z,38.60
2023-01-22T02:31:54.570Z,35.00
2023-01-22T02:34:24.768Z,36.20
2023-01-22T02:36:52.143Z,33.00
2023-01-22T02:39:19.467Z,32.50
2023-01-22T02:41:47.114Z,36.80
2023-01-22T02:44:14.769Z,32.30
2023-01-22T02:46:41.801Z,33.60
2023-01-22T02:49:08.888Z,32.70
2023-01-22T02:51:39.688Z,34.90
2023-01-22T02:54:07.090Z,29.60
2023-01-22T02:56:59.686Z,33.10
2023-01-22T02:59:26.849Z,33.10
2023-01-22T03:01:54.018Z,30.60
2023-01-22T03:04:21.056Z,30.00
2023-01-22T03:06:48.126Z,32.20
2023-01-22T03:09:17.261Z,30.40
2023-01-22T03:11:45.574Z,30.00
2023-01-22T03:14:34.159Z,30.20
2023-01-22T03:17:19.832Z,31.60
2023-01-22T03:20:05.764Z,30.60
2023-01-22T03:22:32.919Z,33.30
2023-01-22T03:25:01.621Z,32.10
2023-01-22T03:27:29.256Z,35.10
2023-01-22T03:29:57.129Z,33.50
2023-01-22T03:32:24.383Z,33.00
2023-01-22T03:34:51.444Z,35.80
2023-01-22T03:37:18.969Z,33.40
2023-01-22T03:39:46.934Z,37.20
2023-01-22T03:42:20.925Z,33.60
2023-01-22T03:44:48.407Z,31.00
2023-01-22T03:47:17.545Z,33.60
2023-01-22T03:49:44.635Z,33.50
2023-01-22T03:52:11.700Z,37.90
2023-01-22T03:54:40.150Z,39.30
2023-01-22T03:57:07.635Z,37.80
2023-01-22T03:59:35.685Z,40.80
2023-01-22T04:02:02.830Z,41.80
2023-01-22T04:04:30.166Z,37.30
2023-01-22T04:06:57.247Z,37.30
2023-01-22T04:09:24.282Z,37.20
2023-01-22T04:11:51.260Z,36.10
2023-01-22T04:14:18.860Z,38.50
2023-01-22T04:16:56.302Z,39.90
2023-01-22T04:19:29.135Z,42.50
2023-01-22T04:22:14.926Z,40.60
2023-01-22T04:24:43.677Z,40.20
2023-01-22T04:27:10.710Z,47.70
2023-01-22T04:29:37.697Z,44.40
2023-01-22T04:32:07.139Z,42.20
2023-01-22T04:34:54.901Z,43.40
2023-01-22T04:37:26.405Z,45.30
2023-01-22T04:39:53.492Z,44.50
2023-01-22T04:42:20.761Z,40.60
2023-01-22T04:44:47.880Z,52.90
2023-01-22T04:47:14.962Z,53.90
2023-01-22T04:49:43.256Z,43.80
2023-01-22T04:52:12.234Z,47.80
2023-01-22T04:54:39.526Z,41.70
2023-01-22T04:57:07.671Z,41.70
2023-01-22T04:59:34.777Z,41.00
2023-01-22T05:02:02.502Z,40.00
2023-01-22T05:04:30.873Z,38.20
2023-01-22T05:07:23.227Z,35.40
2023-01-22T05:09:50.597Z,40.50
2023-01-22T05:12:17.781Z,38.60
2023-01-22T05:15:23.234Z,40.60
2023-01-22T05:17:53.162Z,35.60
2023-01-22T05:20:21.440Z,34.20
2023-01-22T05:22:49.223Z,39.30
2023-01-22T05:25:18.803Z,33.80
2023-01-22T08:07:36.442Z,29.00
2023-01-22T08:10:03.700Z,26.30
2023-01-22T08:12:30.927Z,25.20
2023-01-22T08:14:58.532Z,23.10
2023-01-22T08:17:25.723Z,22.90
2023-01-22T08:19:53.074Z,28.00
2023-01-22T08:22:19.907Z,19.80
2023-01-22T08:25:12.481Z,18.10
2023-01-22T08:27:40.076Z,25.70
2023-01-22T08:30:08.523Z,20.90
2023-01-22T08:32:35.839Z,20.70
2023-01-22T08:35:03.107Z,21.60
2023-01-22T08:37:30.277Z,19.60
2023-01-22T08:39:57.178Z,25.20
2023-01-22T08:42:24.362Z,22.40
2023-01-22T08:44:51.233Z,24.50
2023-01-22T08:47:19.713Z,23.60
2023-01-22T08:49:46.600Z,19.90
2023-01-22T08:52:13.491Z,23.30
2023-01-22T08:54:40.791Z,20.70
2023-01-22T08:57:08.506Z,23.20
2023-01-22T08:59:36.602Z,19.60
2023-01-22T09:02:03.544Z,21.40
2023-01-22T09:04:32.289Z,19.90
2023-01-22T09:07:00.015Z,21.50
2023-01-22T09:09:26.859Z,20.20
2023-01-22T09:11:53.900Z,18.40
2023-01-22T09:14:20.990Z,18.10
2023-01-22T09:16:47.991Z,19.20
2023-01-22T09:19:15.052Z,23.80
2023-01-22T09:21:42.055Z,19.50
2023-01-22T09:24:09.194Z,17.00
2023-01-22T09:26:36.566Z,18.70
2023-01-22T09:29:05.504Z,21.80
2023-01-22T09:31:33.509Z,20.70
2023-01-22T09:34:00.683Z,22.60
2023-01-22T09:36:28.001Z,20.10
2023-01-22T09:38:55.180Z,18.70
2023-01-22T09:41:34.176Z,19.90
2023-01-22T09:44:17.940Z,22.10
2023-01-22T09:46:47.158Z,22.90
2023-01-22T09:49:23.019Z,25.30
2023-01-22T09:51:53.811Z,21.40
2023-01-22T09:54:20.981Z,26.60
2023-01-22T10:01:41.470Z,22.30
2023-01-22T10:04:20.907Z,23.00
2023-01-22T10:06:48.237Z,22.40
2023-01-22T10:09:19.982Z,25.90
2023-01-22T10:11:51.177Z,26.10
2023-01-22T10:14:18.769Z,25.30
2023-01-22T10:16:45.946Z,28.60
2023-01-22T10:19:26.807Z,27.40
2023-01-22T10:22:01.218Z,27.50
2023-01-22T10:24:29.456Z,28.90
2023-01-22T10:26:59.075Z,29.60
2023-01-22T10:29:27.971Z,34.40
2023-01-22T10:31:58.618Z,32.20
2023-01-22T10:34:32.802Z,27.90
2023-01-22T10:37:05.384Z,29.50
2023-01-22T10:39:42.689Z,33.30
2023-01-22T10:42:23.974Z,33.70
2023-01-22T10:44:54.465Z,30.10
2023-01-22T10:47:23.676Z,25.50
2023-01-22T10:50:04.291Z,26.40
2023-01-22T10:53:01.251Z,25.90
2023-01-22T10:55:30.763Z,23.30
2023-01-22T10:58:14.116Z,25.40
2023-01-22T11:00:51.489Z,24.50
2023-01-22T11:03:31.444Z,31.60
2023-01-22T11:06:13.897Z,24.90
2023-01-22T11:08:58.459Z,23.70
2023-01-22T11:11:32.074Z,30.40
2023-01-22T11:14:04.517Z,24.90
2023-01-22T11:16:33.893Z,23.90
2023-01-22T11:19:07.671Z,21.00
2023-01-22T11:21:52.418Z,24.30
2023-01-22T11:24:23.731Z,24.20
2023-01-22T11:27:03.050Z,25.80
2023-01-22T11:29:46.242Z,22.20
2023-01-22T11:32:35.439Z,25.10
2023-01-22T11:35:24.076Z,24.60
2023-01-22T11:38:08.363Z,25.10
2023-01-22T11:40:36.678Z,21.60
2023-01-22T11:43:28.839Z,21.90
2023-01-22T11:46:20.847Z,21.40
2023-01-22T11:49:14.394Z,20.10
2023-01-22T11:52:20.573Z,17.80
2023-01-22T11:54:59.875Z,20.00
2023-01-22T11:57:37.420Z,19.10
2023-01-22T12:00:49.516Z,18.30
2023-01-22T12:03:38.280Z,20.00
2023-01-22T12:06:13.312Z,17.60
2023-01-22T12:09:02.196Z,20.80
2023-01-22T12:11:35.521Z,17.70
2023-01-22T12:14:12.398Z,22.30
2023-01-22T12:17:06.212Z,18.50
2023-01-22T12:19:56.644Z,17.00
2023-01-22T12:22:41.473Z,15.50
2023-01-22T12:25:46.692Z,15.50
2023-01-22T12:28:18.237Z,19.70
2023-01-22T12:31:02.500Z,18.30
2023-01-22T12:33:32.366Z,17.10
2023-01-22T12:36:01.437Z,15.10
2023-01-22T12:39:06.565Z,15.60
2023-01-22T12:41:54.423Z,16.10
2023-01-22T12:44:21.693Z,16.10
2023-01-22T12:47:18.954Z,15.00
2023-01-22T12:49:55.548Z,14.40
2023-01-22T12:52:37.400Z,16.70
2023-01-22T12:55:21.991Z,15.60
2023-01-22T12:57:49.062Z,12.70
2023-01-22T13:00:36.591Z,14.20
2023-01-22T13:03:31.664Z,14.80
2023-01-22T13:05:59.962Z,14.50
2023-01-22T13:08:42.330Z,15.00
2023-01-22T13:11:13.260Z,14.20
2023-01-22T13:14:09.689Z,17.50
2023-01-22T13:17:17.320Z,15.20
2023-01-22T14:08:13.062Z,32.00
2023-01-22T14:10:41.666Z,24.70
2023-01-22T14:13:10.670Z,24.30
2023-01-22T14:15:38.406Z,22.30
2023-01-22T14:18:23.950Z,24.90
2023-01-22T14:20:50.940Z,22.00
2023-01-22T14:23:22.289Z,18.90
2023-01-22T14:25:56.436Z,20.50
2023-01-22T14:28:27.988Z,44.00
2023-01-22T14:30:55.041Z,26.20
2023-01-22T14:33:28.079Z,17.60
2023-01-22T14:35:54.989Z,25.20
2023-01-22T14:38:22.515Z,28.20
2023-01-22T14:41:15.332Z,25.50
2023-01-22T14:43:42.646Z,28.30
2023-01-22T16:45:37.260Z,18.00
2023-01-22T16:48:04.599Z,14.90
2023-01-22T16:50:31.788Z,13.80
2023-01-22T16:52:59.382Z,14.30
2023-01-22T16:55:26.329Z,11.40
2023-01-22T16:57:53.980Z,12.40
2023-01-22T17:00:22.245Z,11.20
2023-01-22T17:02:49.361Z,15.90
2023-01-22T17:05:44.329Z,14.10
2023-01-22T17:08:11.376Z,14.60
2023-01-22T17:10:38.470Z,16.30
2023-01-22T17:13:06.148Z,20.10
2023-01-22T17:15:34.421Z,18.60
2023-01-22T17:18:06.255Z,18.30
2023-01-22T17:20:33.959Z,17.50
2023-01-22T17:23:08.475Z,18.20
2023-01-22T17:25:40.100Z,21.10
2023-01-22T17:28:08.458Z,17.50
2023-01-22T17:30:38.019Z,18.50
2023-01-22T17:33:08.581Z,21.00
2023-01-22T17:35:36.827Z,23.90
2023-01-22T17:38:06.511Z,20.40
2023-01-22T17:40:38.595Z,24.70
2023-01-22T17:43:05.777Z,26.00
2023-01-22T17:45:32.721Z,21.80
2023-01-22T17:55:40.657Z,23.70
2023-01-22T17:58:08.279Z,20.20
2023-01-22T18:00:38.462Z,20.90
2023-01-22T18:03:06.522Z,22.60
2023-01-22T18:05:34.764Z,21.90
2023-01-22T18:08:28.711Z,22.50
2023-01-22T18:10:56.755Z,34.40
2023-01-22T18:13:51.289Z,22.60
2023-01-22T18:16:18.950Z,23.90
2023-01-22T18:18:46.825Z,20.10
2023-01-22T18:21:16.619Z,18.30
2023-01-22T18:23:44.161Z,17.60
2023-01-22T18:26:11.408Z,21.80
2023-01-22T18:28:39.228Z,25.40
2023-01-22T18:31:08.630Z,22.30
2023-01-22T18:33:37.524Z,19.80
2023-01-22T18:36:08.665Z,20.60
2023-01-22T18:38:37.152Z,16.20
2023-01-22T18:41:10.568Z,18.00
2023-01-22T18:43:38.513Z,20.40
2023-01-22T18:46:10.546Z,19.00
2023-01-22T18:48:38.480Z,19.50
2023-01-22T18:51:06.650Z,19.40
2023-01-22T18:53:35.711Z,18.60
2023-01-22T18:56:05.072Z,20.30
2023-01-22T18:58:37.651Z,18.00
2023-01-22T19:01:16.128Z,19.60
2023-01-22T19:03:45.133Z,18.60
2023-01-22T19:06:18.950Z,20.70
2023-01-22T19:08:58.733Z,21.00
2023-01-22T19:11:26.745Z,21.40
2023-01-22T19:13:54.736Z,19.60
2023-01-22T19:16:23.319Z,23.40
2023-01-22T19:18:58.782Z,25.70
2023-01-22T19:21:26.920Z,23.60
2023-01-22T19:23:58.140Z,20.90
2023-01-22T19:26:31.001Z,25.60
2023-01-22T19:29:07.319Z,22.70
2023-01-22T19:31:36.929Z,23.30
2023-01-22T19:34:04.840Z,23.70
2023-01-22T19:37:01.474Z,23.00
2023-01-22T19:39:30.214Z,24.70
2023-01-22T19:41:58.379Z,25.20
2023-01-22T19:44:25.474Z,23.40
2023-01-22T19:46:53.747Z,25.40
2023-01-22T19:49:21.019Z,24.30
2023-01-22T19:51:48.549Z,24.90
2023-01-22T19:54:16.594Z,25.90
2023-01-22T19:56:45.541Z,30.20
2023-01-22T19:59:15.449Z,24.80
2023-01-22T20:01:46.537Z,25.10
2023-01-22T20:04:34.011Z,26.20
2023-01-22T20:07:02.292Z,27.30
2023-01-22T20:09:32.353Z,24.80
2023-01-22T20:11:59.506Z,24.00
2023-01-22T20:14:30.134Z,20.90
2023-01-22T20:16:58.031Z,24.20
2023-01-22T20:19:25.114Z,25.60
2023-01-22T20:21:52.264Z,21.20
2023-01-22T20:24:19.429Z,24.40
2023-01-22T20:26:47.610Z,21.70
2023-01-22T20:29:14.810Z,20.30
2023-01-22T20:31:42.133Z,22.20
2023-01-22T20:34:09.414Z,24.30
2023-01-22T20:36:39.347Z,22.80
2023-01-22T20:39:07.507Z,22.80
2023-01-22T20:41:34.581Z,23.60
2023-01-22T20:44:03.222Z,23.10
2023-01-22T20:46:30.412Z,24.10
2023-01-22T20:48:58.038Z,23.90
2023-01-22T20:51:27.123Z,21.30
2023-01-22T20:53:55.043Z,22.80
2023-01-22T20:56:25.649Z,22.80
2023-01-22T20:59:04.159Z,23.50
2023-01-22T21:01:31.798Z,23.30
2023-01-22T21:03:59.080Z,22.80
2023-01-22T21:06:28.344Z,21.90
2023-01-22T21:08:59.157Z,21.70
2023-01-22T21:11:51.558Z,19.50
2023-01-22T21:14:20.651Z,23.40
2023-01-22T21:16:48.036Z,20.90
2023-01-22T21:19:21.288Z,21.20
2023-01-22T21:24:15.427Z,20.90
2023-01-22T21:26:42.462Z,19.40
2023-01-22T21:29:14.224Z,18.10
2023-01-22T21:31:41.398Z,22.10
2023-01-22T21:34:10.065Z,19.30
2023-01-22T21:36:49.090Z,21.20
2023-01-22T21:39:18.882Z,22.30
2023-01-22T21:41:46.002Z,19.00
2023-01-22T21:44:33.301Z,23.40
2023-01-22T21:47:00.488Z,20.90
2023-01-22T21:49:27.685Z,20.20
2023-01-22T21:51:58.433Z,19.40
2023-01-22T21:54:30.429Z,21.30
2023-01-22T21:56:57.520Z,20.00
2023-01-22T21:59:24.843Z,20.20
2023-01-22T22:01:53.935Z,23.60
2023-01-22T22:04:22.067Z,22.90
2023-01-22T22:06:49.162Z,26.50
2023-01-22T22:09:18.143Z,23.40
2023-01-22T22:11:45.717Z,21.90
2023-01-22T22:14:13.445Z,21.10
2023-01-22T22:16:40.515Z,18.80
2023-01-22T22:19:52.069Z,20.40
2023-01-22T22:22:20.527Z,21.60
2023-01-22T22:24:47.541Z,19.50
2023-01-22T22:27:14.693Z,19.70
2023-01-22T22:29:41.715Z,20.60
2023-01-22T22:32:08.848Z,20.70
2023-01-22T22:34:35.984Z,20.60
2023-01-22T22:37:03.055Z,19.80
2023-01-22T22:39:30.186Z,20.40
2023-01-22T22:41:57.236Z,21.00
2023-01-22T22:44:24.350Z,20.00
2023-01-22T22:46:51.362Z,20.20
2023-01-22T22:49:18.380Z,21.50
2023-01-22T22:51:45.924Z,17.90
2023-01-22T22:54:15.980Z,19.20
2023-01-22T22:56:46.879Z,19.20
2023-01-22T22:59:14.266Z,21.50
2023-01-22T23:01:41.375Z,18.60
2023-01-22T23:11:44.528Z,17.20
2023-01-22T23:14:11.931Z,18.90
2023-01-22T23:16:41.568Z,18.30
2023-01-22T23:19:12.672Z,21.80
2023-01-22T23:21:42.605Z,20.00
2023-01-22T23:24:10.654Z,23.20
2023-01-22T23:26:37.947Z,21.30
2023-01-22T23:29:06.004Z,19.90
2023-01-22T23:31:34.049Z,20.70
2023-01-22T23:34:01.569Z,19.80
2023-01-22T23:36:28.694Z,18.70
2023-01-22T23:38:55.765Z,20.80
2023-01-22T23:41:23.351Z,19.80
2023-01-22T23:43:50.430Z,19.90
2023-01-22T23:46:22.359Z,18.80
2023-01-22T23:48:49.798Z,18.70
2023-01-22T23:51:17.190Z,19.30
2023-01-22T23:53:53.273Z,17.30
2023-01-22T23:56:23.455Z,18.50
2023-01-22T23:58:52.679Z,19.10
